Time;durP1;ratioP1;P1;durP2;ratioP2;P2;SDS_P1;SDS_P2;PMS_P1;PMS_P2;Temp;Humidity;BMP_temperature;BMP_pressure;BME280_temperature;BME280_humidity;BME280_pressure;Samples;Min_cycle;Max_cycle;Signal;HPM_P1;HPM_P2
2022/03/14 00:00:06;;;;;;;11.02;5.30;;;;;;;;;;5030548;28;20049;-76
2022/03/14 00:02:31;;;;;;;8.40;4.60;;;;;;;;;;5030572;28;20390;-76
2022/03/14 00:04:56;;;;;;;10.82;4.55;;;;;;;;;;5028905;28;20047;-77
2022/03/14 00:07:22;;;;;;;9.93;4.93;;;;;;;;;;5030303;28;20037;-76
2022/03/14 00:09:48;;;;;;;8.15;5.50;;;;;;;;;;5030016;28;20820;-76
2022/03/14 00:12:23;;;;;;;8.35;4.40;;;;;;;;;;5030058;28;20052;-74
2022/03/14 00:14:53;;;;;;;11.32;5.35;;;;;;;;;;5030265;28;20021;-77
2022/03/14 00:17:18;;;;;;;7.60;4.80;;;;;;;;;;5029766;28;20033;-77
2022/03/14 00:19:44;;;;;;;10.95;5.63;;;;;;;;;;5033346;28;20021;-76
2022/03/14 00:22:09;;;;;;;12.63;5.78;;;;;;;;;;5036844;28;20494;-75
2022/03/14 00:24:35;;;;;;;10.48;6.13;;;;;;;;;;5033990;28;20053;-76
2022/03/14 00:27:00;;;;;;;10.55;5.45;;;;;;;;;;5033748;28;20022;-75
2022/03/14 00:29:26;;;;;;;8.95;5.43;;;;;;;;;;5032673;28;20025;-76
2022/03/14 00:31:52;;;;;;;11.45;6.03;;;;;;;;;;5037227;28;20112;-74
2022/03/14 00:34:17;;;;;;;10.80;5.65;;;;;;;;;;5050541;28;20097;-76
2022/03/14 00:36:42;;;;;;;11.80;6.22;;;;;;;;;;5053227;28;20104;-76
2022/03/14 00:39:08;;;;;;;13.18;6.05;;;;;;;;;;5053256;28;20013;-75
2022/03/14 00:41:33;;;;;;;12.43;6.63;;;;;;;;;;5053004;28;20029;-76
2022/03/14 00:43:58;;;;;;;11.48;6.20;;;;;;;;;;5053030;28;20159;-75
2022/03/14 00:46:24;;;;;;;11.00;5.53;;;;;;;;;;5051829;28;20028;-76
2022/03/14 00:48:49;;;;;;;12.32;5.43;;;;;;;;;;5052852;28;20032;-75
2022/03/14 00:51:15;;;;;;;11.35;5.30;;;;;;;;;;5053125;28;20051;-75
2022/03/14 00:53:40;;;;;;;10.90;6.25;;;;;;;;;;5052670;28;20017;-74
2022/03/14 00:56:06;;;;;;;12.88;6.47;;;;;;;;;;5052108;28;20378;-76
2022/03/14 00:58:33;;;;;;;14.23;7.00;;;;;;;;;;5052625;28;20454;-76
2022/03/14 01:00:58;;;;;;;11.65;6.80;;;;;;;;;;5052531;28;20064;-76
2022/03/14 01:03:23;;;;;;;12.00;6.75;;;;;;;;;;5051283;28;20021;-76
2022/03/14 01:05:49;;;;;;;11.70;6.75;;;;;;;;;;5052740;28;20029;-77
2022/03/14 01:08:14;;;;;;;12.50;6.13;;;;;;;;;;5051286;28;20059;-75
2022/03/14 01:10:39;;;;;;;13.30;6.18;;;;;;;;;;5052712;28;20028;-76
2022/03/14 01:13:04;;;;;;;12.95;6.45;;;;;;;;;;5051468;28;20043;-75
2022/03/14 01:15:33;;;;;;;10.60;6.13;;;;;;;;;;5052715;28;20381;-75
2022/03/14 01:17:59;;;;;;;13.98;5.68;;;;;;;;;;5052424;28;20045;-76
2022/03/14 01:20:25;;;;;;;10.73;6.10;;;;;;;;;;5050812;28;20049;-76
2022/03/14 01:22:50;;;;;;;11.32;6.40;;;;;;;;;;5052366;28;20078;-76
2022/03/14 01:25:15;;;;;;;11.63;6.00;;;;;;;;;;5054101;28;20375;-80
2022/03/14 01:27:41;;;;;;;8.90;5.35;;;;;;;;;;5053979;28;20076;-77
2022/03/14 01:30:06;;;;;;;11.13;6.05;;;;;;;;;;5051893;28;20028;-75
2022/03/14 01:32:31;;;;;;;10.52;5.40;;;;;;;;;;5051835;28;20021;-76
2022/03/14 01:34:57;;;;;;;9.98;6.32;;;;;;;;;;5045277;28;20036;-75
2022/03/14 01:37:22;;;;;;;12.45;6.30;;;;;;;;;;5031913;28;20029;-75
2022/03/14 01:39:47;;;;;;;11.57;5.93;;;;;;;;;;5030453;28;20023;-76
2022/03/14 01:42:17;;;;;;;13.32;6.03;;;;;;;;;;5031968;28;20492;-75
2022/03/14 01:44:42;;;;;;;12.73;6.80;;;;;;;;;;5030777;28;20030;-76
2022/03/14 01:47:08;;;;;;;13.13;6.90;;;;;;;;;;5030899;28;20032;-76
2022/03/14 01:49:33;;;;;;;10.70;6.28;;;;;;;;;;5032098;28;20438;-76
2022/03/14 01:51:58;;;;;;;13.88;6.82;;;;;;;;;;5031144;28;20112;-74
2022/03/14 01:54:24;;;;;;;15.57;7.72;;;;;;;;;;5032854;28;20026;-75
2022/03/14 01:56:50;;;;;;;11.20;6.50;;;;;;;;;;5033006;28;20014;-76
2022/03/14 01:59:15;;;;;;;11.10;6.15;;;;;;;;;;5030396;28;20061;-75
2022/03/14 02:01:40;;;;;;;11.15;6.03;;;;;;;;;;5031736;28;20033;-76
2022/03/14 02:04:08;;;;;;;14.30;6.70;;;;;;;;;;5031765;28;20017;-74
2022/03/14 02:06:35;;;;;;;14.65;7.00;;;;;;;;;;5031579;28;20034;-75
2022/03/14 02:09:01;;;;;;;13.48;7.90;;;;;;;;;;5030532;28;20382;-74
2022/03/14 02:11:26;;;;;;;16.65;7.75;;;;;;;;;;5033166;28;20021;-75
2022/03/14 02:13:51;;;;;;;16.85;8.73;;;;;;;;;;5032502;28;20023;-75
2022/03/14 02:16:17;;;;;;;18.17;8.77;;;;;;;;;;5031678;28;20034;-74
2022/03/14 02:18:42;;;;;;;17.92;8.70;;;;;;;;;;5030265;28;20029;-76
2022/03/14 02:21:08;;;;;;;17.17;8.98;;;;;;;;;;5034279;28;20032;-80
2022/03/14 02:23:34;;;;;;;16.08;9.63;;;;;;;;;;5031686;28;20057;-74
2022/03/14 02:25:59;;;;;;;17.65;10.10;;;;;;;;;;5044772;28;20048;-75
2022/03/14 02:28:26;;;;;;;22.33;10.38;;;;;;;;;;5049905;28;20021;-76
2022/03/14 02:30:51;;;;;;;18.13;10.90;;;;;;;;;;5050878;28;20016;-75
2022/03/14 02:33:17;;;;;;;26.42;11.00;;;;;;;;;;5050259;28;20029;-75
2022/03/14 02:35:42;;;;;;;23.42;11.02;;;;;;;;;;5050772;28;20021;-74
2022/03/14 02:38:09;;;;;;;24.92;12.00;;;;;;;;;;5050543;28;20107;-75
2022/03/14 02:40:35;;;;;;;24.08;12.10;;;;;;;;;;5051846;28;20025;-75
2022/03/14 02:43:00;;;;;;;21.90;11.98;;;;;;;;;;5052494;28;20021;-76
2022/03/14 02:45:25;;;;;;;28.00;13.20;;;;;;;;;;5052381;28;20051;-75
2022/03/14 02:47:51;;;;;;;26.70;12.43;;;;;;;;;;5053163;28;20009;-75
2022/03/14 02:50:16;;;;;;;23.40;11.18;;;;;;;;;;5051086;28;20032;-74
2022/03/14 02:52:42;;;;;;;21.75;11.77;;;;;;;;;;5050947;28;20075;-75
2022/03/14 02:55:07;;;;;;;21.63;11.32;;;;;;;;;;5051152;28;20025;-75
2022/03/14 02:57:32;;;;;;;22.95;11.45;;;;;;;;;;5050711;28;20033;-75
2022/03/14 02:59:58;;;;;;;21.13;11.02;;;;;;;;;;5050524;28;20091;-75
2022/03/14 03:02:25;;;;;;;23.05;11.23;;;;;;;;;;5050398;28;20098;-75
2022/03/14 03:04:51;;;;;;;22.92;11.50;;;;;;;;;;5050788;28;20021;-75
2022/03/14 03:07:18;;;;;;;19.52;10.63;;;;;;;;;;5050717;28;20029;-75
2022/03/14 03:09:44;;;;;;;20.60;10.98;;;;;;;;;;5050676;28;20053;-75
2022/03/14 03:12:14;;;;;;;22.77;11.52;;;;;;;;;;5050624;28;20116;-75
2022/03/14 03:14:39;;;;;;;18.42;10.82;;;;;;;;;;5050931;28;20024;-75
2022/03/14 03:17:06;;;;;;;22.40;11.05;;;;;;;;;;5053863;28;20103;-76
2022/03/14 03:19:31;;;;;;;23.88;12.32;;;;;;;;;;5049471;28;20425;-76
2022/03/14 03:21:56;;;;;;;20.92;10.90;;;;;;;;;;5049793;28;20071;-74
2022/03/14 03:24:21;;;;;;;20.88;11.68;;;;;;;;;;5050443;28;20463;-75
2022/03/14 03:26:47;;;;;;;21.80;10.95;;;;;;;;;;5050725;28;20025;-75
2022/03/14 03:29:12;;;;;;;19.77;10.18;;;;;;;;;;5050404;28;20442;-75
2022/03/14 03:31:37;;;;;;;19.02;10.23;;;;;;;;;;5049207;28;20024;-75
2022/03/14 03:34:03;;;;;;;23.08;11.13;;;;;;;;;;5050498;28;20024;-75
2022/03/14 03:36:28;;;;;;;22.27;10.70;;;;;;;;;;5050233;28;20029;-75
2022/03/14 03:38:53;;;;;;;19.23;10.48;;;;;;;;;;5050223;28;20017;-75
2022/03/14 03:41:18;;;;;;;23.13;10.40;;;;;;;;;;5050313;28;20033;-75
2022/03/14 03:43:44;;;;;;;20.73;10.52;;;;;;;;;;5048568;28;20462;-76
2022/03/14 03:46:09;;;;;;;23.30;10.70;;;;;;;;;;5050257;28;20020;-75
2022/03/14 03:48:34;;;;;;;23.38;10.95;;;;;;;;;;5050422;28;20021;-74
2022/03/14 03:51:01;;;;;;;22.90;10.68;;;;;;;;;;5050246;28;20061;-76
2022/03/14 03:53:26;;;;;;;23.50;11.50;;;;;;;;;;5050415;28;20112;-75
2022/03/14 03:55:51;;;;;;;22.58;10.80;;;;;;;;;;5054366;28;20100;-75
2022/03/14 03:58:17;;;;;;;23.92;12.13;;;;;;;;;;5052744;28;20458;-76
2022/03/14 04:00:42;;;;;;;21.40;10.85;;;;;;;;;;5053807;28;20045;-75
2022/03/14 04:03:08;;;;;;;20.83;11.15;;;;;;;;;;5053926;28;20060;-75
2022/03/14 04:05:35;;;;;;;23.67;11.15;;;;;;;;;;5053938;28;20112;-76
2022/03/14 04:08:02;;;;;;;25.50;10.95;;;;;;;;;;5053934;28;20037;-77
2022/03/14 04:10:28;;;;;;;36.28;11.98;;;;;;;;;;5054308;28;20024;-78
2022/03/14 04:12:58;;;;;;;29.95;12.07;;;;;;;;;;5055083;28;20045;-75
2022/03/14 04:15:24;;;;;;;25.85;11.30;;;;;;;;;;5053778;28;20526;-74
2022/03/14 04:17:49;;;;;;;26.50;10.82;;;;;;;;;;5053619;28;20112;-76
2022/03/14 04:20:15;;;;;;;21.33;11.23;;;;;;;;;;5054024;28;20120;-77
2022/03/14 04:22:41;;;;;;;22.80;11.13;;;;;;;;;;5055134;28;20037;-75
2022/03/14 04:25:07;;;;;;;18.00;9.68;;;;;;;;;;5055246;28;20009;-76
2022/03/14 04:27:32;;;;;;;21.90;9.65;;;;;;;;;;5033661;28;20486;-74
2022/03/14 04:29:58;;;;;;;20.33;9.75;;;;;;;;;;5033293;28;20040;-77
2022/03/14 04:32:23;;;;;;;27.83;10.75;;;;;;;;;;5048029;28;20017;-75
2022/03/14 04:34:49;;;;;;;17.88;9.32;;;;;;;;;;5051069;28;20028;-75
2022/03/14 04:37:14;;;;;;;19.90;10.35;;;;;;;;;;5051598;28;20014;-75
2022/03/14 04:39:40;;;;;;;22.90;9.65;;;;;;;;;;5051147;28;20546;-74
2022/03/14 04:42:06;;;;;;;17.55;9.85;;;;;;;;;;5053001;28;20029;-77
2022/03/14 04:44:31;;;;;;;17.25;8.65;;;;;;;;;;5050924;28;20462;-76
2022/03/14 04:46:57;;;;;;;18.90;8.98;;;;;;;;;;5051473;28;20024;-75
2022/03/14 04:49:22;;;;;;;27.52;11.38;;;;;;;;;;5051452;28;20466;-76
2022/03/14 04:51:50;;;;;;;19.67;10.18;;;;;;;;;;5052665;28;20477;-74
2022/03/14 04:54:15;;;;;;;41.40;19.23;;;;;;;;;;5052816;28;20021;-74
2022/03/14 04:56:40;;;;;;;40.65;21.48;;;;;;;;;;5053143;28;20389;-75
2022/03/14 04:59:06;;;;;;;34.20;13.23;;;;;;;;;;5052253;28;20120;-75
2022/03/14 05:01:31;;;;;;;23.27;12.20;;;;;;;;;;5051098;28;20037;-75
2022/03/14 05:03:56;;;;;;;25.50;10.63;;;;;;;;;;5052803;28;20087;-76
2022/03/14 05:06:22;;;;;;;20.48;10.50;;;;;;;;;;5054814;28;20482;-75
2022/03/14 05:08:47;;;;;;;20.20;10.27;;;;;;;;;;5053862;28;20021;-76
2022/03/14 05:11:13;;;;;;;29.20;10.35;;;;;;;;;;5053671;28;20462;-76
2022/03/14 05:13:39;;;;;;;20.70;10.55;;;;;;;;;;5058570;28;20013;-77
2022/03/14 05:16:04;;;;;;;24.88;9.95;;;;;;;;;;5053087;28;20082;-75
2022/03/14 05:18:30;;;;;;;23.75;9.90;;;;;;;;;;5052302;28;20447;-74
2022/03/14 05:20:56;;;;;;;22.35;10.52;;;;;;;;;;5038524;28;20037;-76
2022/03/14 05:23:21;;;;;;;22.75;10.85;;;;;;;;;;5032061;28;20075;-75
2022/03/14 05:25:47;;;;;;;23.25;10.25;;;;;;;;;;5032780;28;20044;-75
2022/03/14 05:28:12;;;;;;;23.77;9.48;;;;;;;;;;5031901;28;20076;-75
2022/03/14 05:30:37;;;;;;;28.55;9.70;;;;;;;;;;5031012;28;20014;-75
2022/03/14 05:33:03;;;;;;;22.70;10.63;;;;;;;;;;5031711;28;20032;-76
2022/03/14 05:35:28;;;;;;;28.90;10.52;;;;;;;;;;5030883;28;20017;-77
2022/03/14 05:37:53;;;;;;;19.67;10.20;;;;;;;;;;5047339;28;20748;-74
2022/03/14 05:40:20;;;;;;;37.80;13.70;;;;;;;;;;5032069;28;20017;-76
2022/03/14 05:42:47;;;;;;;32.08;15.00;;;;;;;;;;5031796;28;20044;-75
2022/03/14 05:45:13;;;;;;;31.33;15.55;;;;;;;;;;5047186;28;20033;-74
2022/03/14 05:47:38;;;;;;;33.88;14.50;;;;;;;;;;5031538;28;20424;-76
2022/03/14 05:50:04;;;;;;;38.05;13.73;;;;;;;;;;5031652;28;20010;-76
2022/03/14 05:52:29;;;;;;;46.05;19.67;;;;;;;;;;5031715;28;20021;-75
2022/03/14 05:54:55;;;;;;;51.05;23.25;;;;;;;;;;5047105;28;20025;-78
2022/03/14 05:57:21;;;;;;;25.75;12.05;;;;;;;;;;5031997;28;20024;-75
2022/03/14 05:59:46;;;;;;;23.40;11.85;;;;;;;;;;5031940;28;20053;-75
2022/03/14 06:02:11;;;;;;;32.00;12.40;;;;;;;;;;5034585;28;20098;-73
2022/03/14 06:04:40;;;;;;;28.25;11.52;;;;;;;;;;5031681;28;20510;-75
2022/03/14 06:07:06;;;;;;;24.30;11.38;;;;;;;;;;5047109;28;20032;-75
2022/03/14 06:09:32;;;;;;;33.58;13.70;;;;;;;;;;5063330;28;20022;-75
2022/03/14 06:11:57;;;;;;;32.00;13.32;;;;;;;;;;5031229;28;20108;-78
2022/03/14 06:14:22;;;;;;;24.17;11.95;;;;;;;;;;5072987;28;20067;-84
2022/03/14 06:16:47;;;;;;;25.35;10.13;;;;;;;;;;5076502;28;20025;-75
2022/03/14 06:19:13;;;;;;;24.70;11.38;;;;;;;;;;5049370;28;20028;-75
2022/03/14 06:21:38;;;;;;;31.27;12.85;;;;;;;;;;5046550;28;20053;-74
2022/03/14 06:24:06;;;;;;;29.20;13.27;;;;;;;;;;5050268;28;20055;-77
2022/03/14 06:26:34;;;;;;;21.20;11.35;;;;;;;;;;5050809;28;20070;-74
2022/03/14 06:28:59;;;;;;;23.10;10.90;;;;;;;;;;5048263;28;20021;-75
2022/03/14 06:31:25;;;;;;;27.73;11.55;;;;;;;;;;5055902;28;20023;-76
2022/03/14 06:33:50;;;;;;;27.00;13.82;;;;;;;;;;5050686;28;20040;-75
2022/03/14 06:36:15;;;;;;;34.78;13.43;;;;;;;;;;5052980;28;20492;-76
2022/03/14 06:38:40;;;;;;;22.27;10.90;;;;;;;;;;5050993;28;20021;-74
2022/03/14 06:41:10;;;;;;;21.17;9.55;;;;;;;;;;5050685;28;20543;-77
2022/03/14 06:43:35;;;;;;;18.70;11.07;;;;;;;;;;5050941;28;20458;-76
2022/03/14 06:46:02;;;;;;;23.70;11.88;;;;;;;;;;5049995;28;20028;-75
2022/03/14 06:48:27;;;;;;;28.08;12.07;;;;;;;;;;5050102;28;20016;-78
2022/03/14 06:50:52;;;;;;;20.20;9.77;;;;;;;;;;5050328;28;20457;-76
2022/03/14 06:53:18;;;;;;;19.35;10.50;;;;;;;;;;5045119;28;20025;-77
2022/03/14 06:55:43;;;;;;;23.40;12.23;;;;;;;;;;5031047;28;20021;-75
2022/03/14 06:58:08;;;;;;;22.05;10.27;;;;;;;;;;5049053;28;20030;-76
2022/03/14 07:00:34;;;;;;;21.80;9.88;;;;;;;;;;5030529;28;20053;-81
2022/03/14 07:02:59;;;;;;;22.05;10.63;;;;;;;;;;5033099;28;20029;-78
2022/03/14 07:05:26;;;;;;;24.05;11.23;;;;;;;;;;5048411;28;20646;-78
2022/03/14 07:07:51;;;;;;;29.83;11.07;;;;;;;;;;5050311;28;20470;-81
2022/03/14 07:10:17;;;;;;;27.60;10.40;;;;;;;;;;5049297;28;20056;-79
2022/03/14 07:12:48;;;;;;;22.23;10.98;;;;;;;;;;5032561;28;20485;-75
2022/03/14 07:15:15;;;;;;;23.15;11.60;;;;;;;;;;5048350;28;20025;-76
2022/03/14 07:17:40;;;;;;;23.55;11.85;;;;;;;;;;5047897;28;20425;-75
2022/03/14 07:20:06;;;;;;;24.52;13.40;;;;;;;;;;5048967;28;20029;-75
2022/03/14 07:22:33;;;;;;;33.85;13.30;;;;;;;;;;5047559;28;20071;-78
2022/03/14 07:24:59;;;;;;;24.85;12.52;;;;;;;;;;5048686;28;20124;-77
2022/03/14 07:27:24;;;;;;;28.23;13.25;;;;;;;;;;5049684;28;20104;-76
2022/03/14 07:29:49;;;;;;;29.10;11.32;;;;;;;;;;5053559;28;20017;-76
2022/03/14 07:32:14;;;;;;;29.55;13.07;;;;;;;;;;5050659;28;20035;-76
2022/03/14 07:34:40;;;;;;;19.77;11.18;;;;;;;;;;5049016;28;20040;-75
2022/03/14 07:37:05;;;;;;;23.17;11.65;;;;;;;;;;5037920;28;20026;-80
2022/03/14 07:39:31;;;;;;;34.30;11.88;;;;;;;;;;5057156;28;20431;-77
2022/03/14 07:41:56;;;;;;;27.90;11.00;;;;;;;;;;5053073;28;20040;-76
2022/03/14 07:44:21;;;;;;;32.20;11.52;;;;;;;;;;5051761;28;20028;-76
2022/03/14 07:46:47;;;;;;;32.47;11.85;;;;;;;;;;5052611;28;20017;-77
2022/03/14 07:49:14;;;;;;;23.40;10.85;;;;;;;;;;5053470;28;20029;-77
2022/03/14 07:51:39;;;;;;;19.20;10.32;;;;;;;;;;5055215;28;20535;-81
2022/03/14 07:54:04;;;;;;;16.08;9.30;;;;;;;;;;5056338;28;20028;-81
2022/03/14 07:56:29;;;;;;;18.93;9.90;;;;;;;;;;5056446;28;20049;-79
2022/03/14 07:58:55;;;;;;;17.10;10.15;;;;;;;;;;5055443;28;20262;-78
2022/03/14 08:01:20;;;;;;;24.95;12.55;;;;;;;;;;5054157;28;20032;-76
2022/03/14 08:03:45;;;;;;;17.45;10.70;;;;;;;;;;5052119;28;20098;-78
2022/03/14 08:06:11;;;;;;;19.00;10.23;;;;;;;;;;5052955;28;20442;-76
2022/03/14 08:08:36;;;;;;;17.88;10.25;;;;;;;;;;5053192;28;20278;-79
2022/03/14 08:11:03;;;;;;;21.92;10.00;;;;;;;;;;5052686;28;20458;-77
2022/03/14 08:13:28;;;;;;;16.02;10.07;;;;;;;;;;5053016;28;20086;-79
2022/03/14 08:15:53;;;;;;;31.80;10.90;;;;;;;;;;5053367;28;20416;-77
2022/03/14 08:18:19;;;;;;;24.23;10.55;;;;;;;;;;5052783;28;20454;-80
2022/03/14 08:20:44;;;;;;;21.10;10.63;;;;;;;;;;5051940;28;20064;-77
2022/03/14 08:23:09;;;;;;;16.07;9.37;;;;;;;;;;5051005;28;20315;-76
2022/03/14 08:25:38;;;;;;;23.30;10.32;;;;;;;;;;5051836;28;20735;-80
2022/03/14 08:28:03;;;;;;;15.80;9.73;;;;;;;;;;5054062;28;20394;-82
2022/03/14 08:30:29;;;;;;;18.83;8.50;;;;;;;;;;5052393;28;20013;-82
2022/03/14 08:32:56;;;;;;;19.17;8.98;;;;;;;;;;5052166;28;20017;-81
2022/03/14 08:35:21;;;;;;;17.23;8.57;;;;;;;;;;5051967;28;20023;-80
2022/03/14 08:37:48;;;;;;;16.10;9.10;;;;;;;;;;5053996;28;20111;-83
2022/03/14 08:40:20;;;;;;;18.10;9.10;;;;;;;;;;5051714;28;20009;-81
2022/03/14 08:42:45;;;;;;;17.20;8.77;;;;;;;;;;5045493;28;20120;-82
2022/03/14 08:45:12;;;;;;;19.25;9.32;;;;;;;;;;5053844;28;20054;-80
2022/03/14 08:47:37;;;;;;;25.73;9.75;;;;;;;;;;5065233;28;20094;-82
2022/03/14 08:50:10;;;;;;;21.70;10.07;;;;;;;;;;5039647;28;20020;-81
2022/03/14 08:52:35;;;;;;;26.63;9.40;;;;;;;;;;5054935;23;20028;-82
2022/03/14 08:55:01;;;;;;;12.35;7.63;;;;;;;;;;5028907;28;20029;-79
2022/03/14 08:57:26;;;;;;;17.15;4.88;;;;;;;;;;5030556;28;20017;-77
2022/03/14 08:59:54;;;;;;;5.65;3.38;;;;;;;;;;5306097;22;20410;-75
2022/03/14 09:02:22;;;;;;;8.50;3.20;;;;;;;;;;5024052;28;20044;-80
2022/03/14 09:04:47;;;;;;;8.15;3.40;;;;;;;;;;5015077;28;20061;-79
2022/03/14 09:07:23;;;;;;;9.85;3.72;;;;;;;;;;5022334;28;20126;-78
2022/03/14 09:09:48;;;;;;;5.40;3.33;;;;;;;;;;5034414;28;20017;-84
2022/03/14 09:12:14;;;;;;;5.10;3.57;;;;;;;;;;5023401;28;20028;-78
2022/03/14 09:14:40;;;;;;;9.35;3.45;;;;;;;;;;5012797;28;20263;-77
2022/03/14 09:17:05;;;;;;;6.40;3.45;;;;;;;;;;5011814;28;20014;-77
2022/03/14 09:19:32;;;;;;;4.72;3.00;;;;;;;;;;5010969;28;20088;-76
2022/03/14 09:21:58;;;;;;;8.25;4.03;;;;;;;;;;5014224;28;20033;-76
2022/03/14 09:24:24;;;;;;;6.65;3.85;;;;;;;;;;5013222;28;20018;-77
2022/03/14 09:26:50;;;;;;;6.70;3.13;;;;;;;;;;5012732;28;20076;-76
2022/03/14 09:29:16;;;;;;;10.23;3.90;;;;;;;;;;5011203;28;20030;-79
2022/03/14 09:31:42;;;;;;;7.20;3.35;;;;;;;;;;5015455;28;20025;-78
2022/03/14 09:34:07;;;;;;;5.97;2.93;;;;;;;;;;5013085;28;20025;-77
2022/03/14 09:36:32;;;;;;;5.50;3.33;;;;;;;;;;5013170;28;20770;-80
2022/03/14 09:38:58;;;;;;;6.80;3.17;;;;;;;;;;5013482;28;20259;-77
2022/03/14 09:41:24;;;;;;;5.32;3.08;;;;;;;;;;5012517;28;20299;-80
2022/03/14 09:43:51;;;;;;;5.05;3.05;;;;;;;;;;5015325;28;20014;-78
2022/03/14 09:46:18;;;;;;;5.60;3.08;;;;;;;;;;5011968;28;20025;-78
2022/03/14 09:48:47;;;;;;;8.93;3.25;;;;;;;;;;5013120;28;20442;-77
2022/03/14 09:51:12;;;;;;;6.40;3.10;;;;;;;;;;5031931;28;20435;-78
2022/03/14 09:53:38;;;;;;;6.20;3.30;;;;;;;;;;5032651;28;20032;-81
2022/03/14 09:56:03;;;;;;;7.00;3.45;;;;;;;;;;5032844;28;20021;-77
2022/03/14 09:58:28;;;;;;;8.05;3.47;;;;;;;;;;5020068;28;20053;-82
2022/03/14 10:00:54;;;;;;;9.00;3.08;;;;;;;;;;5012940;28;20041;-82
2022/03/14 10:03:19;;;;;;;6.10;3.17;;;;;;;;;;5018771;28;20190;-85
2022/03/14 10:05:45;;;;;;;6.35;3.35;;;;;;;;;;5013294;28;20278;-77
2022/03/14 10:08:11;;;;;;;5.45;3.35;;;;;;;;;;5012863;28;20060;-77
2022/03/14 10:10:37;;;;;;;7.10;2.90;;;;;;;;;;5012278;28;20104;-79
2022/03/14 10:13:06;;;;;;;11.52;3.85;;;;;;;;;;5013697;28;20041;-81
2022/03/14 10:15:34;;;;;;;7.03;3.47;;;;;;;;;;5003659;28;20022;-79
2022/03/14 10:17:59;;;;;;;13.93;3.78;;;;;;;;;;4998089;28;20053;-78
2022/03/14 10:20:25;;;;;;;5.72;3.30;;;;;;;;;;5031785;28;20045;-80
2022/03/14 10:22:51;;;;;;;8.88;3.80;;;;;;;;;;5032764;28;20087;-80
2022/03/14 10:25:19;;;;;;;6.45;3.35;;;;;;;;;;5032837;28;20025;-76
2022/03/14 10:27:46;;;;;;;6.20;3.35;;;;;;;;;;5033005;28;20025;-76
2022/03/14 10:30:24;;;;;;;6.70;3.72;;;;;;;;;;5013817;28;20030;-81
2022/03/14 10:32:49;;;;;;;10.45;3.20;;;;;;;;;;5013002;28;20018;-83
2022/03/14 10:35:20;;;;;;;6.07;3.28;;;;;;;;;;5012616;28;20083;-80
2022/03/14 10:37:57;;;;;;;10.80;3.70;;;;;;;;;;5015423;28;20033;-78
2022/03/14 10:40:27;;;;;;;4.93;3.15;;;;;;;;;;5013344;28;20071;-77
2022/03/14 10:42:52;;;;;;;8.85;4.05;;;;;;;;;;5012244;28;20065;-76
2022/03/14 10:45:18;;;;;;;7.85;3.70;;;;;;;;;;5011144;28;20076;-78
2022/03/14 10:47:51;;;;;;;15.88;3.78;;;;;;;;;;5011633;28;20022;-80
2022/03/14 10:50:37;;;;;;;7.90;3.70;;;;;;;;;;5012531;28;20018;-78
2022/03/14 10:53:07;;;;;;;7.30;3.50;;;;;;;;;;5011543;28;20033;-78
2022/03/14 10:55:43;;;;;;;11.13;3.38;;;;;;;;;;5013086;28;20043;-80
2022/03/14 10:58:09;;;;;;;;;;;;;;;;;;5014197;28;20093;-80
2022/03/14 11:00:51;;;;;;;7.50;3.55;;;;;;;;;;5022881;28;20375;-80
2022/03/14 11:03:23;;;;;;;8.13;4.57;;;;;;;;;;5016614;28;20104;-77
2022/03/14 11:05:50;;;;;;;7.57;3.50;;;;;;;;;;5012886;28;20018;-81
2022/03/14 11:08:29;;;;;;;8.20;3.90;;;;;;;;;;5013422;28;20038;-78
2022/03/14 11:10:55;;;;;;;7.13;4.05;;;;;;;;;;4995500;28;20480;-78
2022/03/14 11:13:21;;;;;;;6.68;3.97;;;;;;;;;;5014560;28;20025;-84
2022/03/14 11:15:46;;;;;;;7.47;4.10;;;;;;;;;;5012275;28;20368;-79
2022/03/14 11:18:11;;;;;;;6.93;4.00;;;;;;;;;;5012219;28;20034;-76
2022/03/14 11:20:37;;;;;;;9.47;4.57;;;;;;;;;;5011204;28;20541;-77
2022/03/14 11:23:03;;;;;;;7.20;3.97;;;;;;;;;;5011875;28;20318;-80
2022/03/14 11:25:29;;;;;;;9.27;4.13;;;;;;;;;;5011571;28;20352;-76
2022/03/14 11:27:55;;;;;;;7.60;3.90;;;;;;;;;;5011984;28;20045;-77
2022/03/14 11:30:21;;;;;;;8.40;4.10;;;;;;;;;;5011283;28;20164;-76
2022/03/14 11:32:46;;;;;;;10.20;4.22;;;;;;;;;;5014024;28;20479;-80
2022/03/14 11:35:11;;;;;;;12.35;4.70;;;;;;;;;;5011520;28;20014;-78
2022/03/14 11:37:37;;;;;;;10.15;4.50;;;;;;;;;;5011247;28;20083;-80
2022/03/14 11:40:04;;;;;;;9.00;4.53;;;;;;;;;;5011274;28;20014;-75
2022/03/14 11:42:29;;;;;;;8.27;3.90;;;;;;;;;;5011068;28;20091;-78
2022/03/14 11:44:55;;;;;;;6.30;3.65;;;;;;;;;;5011326;28;20093;-80
2022/03/14 11:47:21;;;;;;;9.25;4.25;;;;;;;;;;5009546;28;20044;-81
2022/03/14 11:49:47;;;;;;;16.77;4.57;;;;;;;;;;5010612;28;20033;-77
2022/03/14 11:52:18;;;;;;;6.82;4.10;;;;;;;;;;5010308;28;20025;-84
2022/03/14 11:54:53;;;;;;;7.00;3.95;;;;;;;;;;4994588;28;20018;-77
2022/03/14 11:57:39;;;;;;;13.55;3.88;;;;;;;;;;5010773;28;20060;-85
2022/03/14 12:00:04;;;;;;;;;;;;;;;;;;5011899;28;20173;-80
2022/03/14 12:02:30;;;;;;;;;;;;;;;;;;5013185;28;20394;-80
2022/03/14 12:04:58;;;;;;;8.65;3.78;;;;;;;;;;5014568;28;19955;-81
2022/03/14 12:07:28;;;;;;;10.90;5.07;;;;;;;;;;5011917;28;20006;-77
2022/03/14 12:09:55;;;;;;;6.97;3.95;;;;;;;;;;5009848;28;20022;-76
2022/03/14 12:12:20;;;;;;;7.97;4.45;;;;;;;;;;5010611;28;20025;-79
2022/03/14 12:14:46;;;;;;;7.37;4.00;;;;;;;;;;5012782;28;20018;-82
2022/03/14 12:17:14;;;;;;;6.18;3.70;;;;;;;;;;5016196;28;20253;-80
2022/03/14 12:19:47;;;;;;;7.00;4.15;;;;;;;;;;5013734;28;20026;-80
2022/03/14 12:22:13;;;;;;;11.93;4.40;;;;;;;;;;5013248;28;20048;-80
2022/03/14 12:24:39;;;;;;;9.43;4.15;;;;;;;;;;5017217;28;20545;-79
2022/03/14 12:27:22;;;;;;;6.90;4.30;;;;;;;;;;5019495;28;20034;-77
2022/03/14 12:29:49;;;;;;;7.97;4.47;;;;;;;;;;5016854;28;20624;-75
2022/03/14 12:32:24;;;;;;;13.65;4.47;;;;;;;;;;5014178;28;20028;-76
2022/03/14 12:34:59;;;;;;;6.90;3.90;;;;;;;;;;5014176;28;20018;-75
2022/03/14 12:37:52;;;;;;;8.68;4.28;;;;;;;;;;5014071;28;20029;-79
2022/03/14 12:40:23;;;;;;;6.05;3.70;;;;;;;;;;5013446;28;20026;-74
2022/03/14 12:42:49;;;;;;;20.83;4.57;;;;;;;;;;5014251;28;20045;-81
2022/03/14 12:45:27;;;;;;;9.98;3.92;;;;;;;;;;5014695;28;20025;-77
2022/03/14 12:47:58;;;;;;;10.52;4.03;;;;;;;;;;5012742;28;20498;-78
2022/03/14 12:50:42;;;;;;;9.60;4.22;;;;;;;;;;5014266;28;20029;-76
2022/03/14 12:53:07;;;;;;;6.68;4.05;;;;;;;;;;5014095;28;20499;-76
2022/03/14 12:55:32;;;;;;;10.13;4.18;;;;;;;;;;5022779;28;20045;-75
2022/03/14 12:57:58;;;;;;;7.55;4.30;;;;;;;;;;5017668;28;20018;-74
2022/03/14 13:00:23;;;;;;;10.48;4.50;;;;;;;;;;5012506;28;20045;-73
2022/03/14 13:02:49;;;;;;;12.40;3.92;;;;;;;;;;5014163;28;20034;-76
2022/03/14 13:05:18;;;;;;;9.73;4.43;;;;;;;;;;5015788;28;20095;-74
2022/03/14 13:07:43;;;;;;;7.65;3.58;;;;;;;;;;5022283;28;20387;-73
2022/03/14 13:10:08;;;;;;;8.60;3.70;;;;;;;;;;5023136;28;20014;-74
2022/03/14 13:12:34;;;;;;;8.65;4.20;;;;;;;;;;5027517;28;20040;-74
2022/03/14 13:15:02;;;;;;;6.47;3.83;;;;;;;;;;5024342;28;20021;-74
2022/03/14 13:17:27;;;;;;;6.93;4.53;;;;;;;;;;5021713;28;20313;-75
2022/03/14 13:19:53;;;;;;;11.52;4.40;;;;;;;;;;5017659;28;20419;-74
2022/03/14 13:22:18;;;;;;;10.55;5.93;;;;;;;;;;5022191;28;20028;-75
2022/03/14 13:24:47;;;;;;;8.20;4.10;;;;;;;;;;5019099;28;20472;-75
2022/03/14 13:27:19;;;;;;;5.82;3.72;;;;;;;;;;5017895;28;20498;-74
2022/03/14 13:29:48;;;;;;;8.77;3.97;;;;;;;;;;5018979;28;20120;-73
2022/03/14 13:32:16;;;;;;;7.20;3.63;;;;;;;;;;5017864;28;20032;-74
2022/03/14 13:34:41;;;;;;;10.02;4.55;;;;;;;;;;5020641;28;20017;-76
2022/03/14 13:37:07;;;;;;;9.35;4.15;;;;;;;;;;5018810;28;20025;-75
2022/03/14 13:39:33;;;;;;;9.57;4.55;;;;;;;;;;5014365;28;20045;-75
2022/03/14 13:41:58;;;;;;;10.80;4.90;;;;;;;;;;5012299;28;20144;-74
2022/03/14 13:44:25;;;;;;;7.65;4.63;;;;;;;;;;5011761;28;20181;-75
2022/03/14 13:46:51;;;;;;;10.15;4.18;;;;;;;;;;5011594;28;20456;-74
2022/03/14 13:49:21;;;;;;;8.98;4.53;;;;;;;;;;5011908;28;20071;-77
2022/03/14 13:51:46;;;;;;;9.65;4.38;;;;;;;;;;5011942;28;20010;-76
2022/03/14 13:54:13;;;;;;;11.60;4.27;;;;;;;;;;5011399;28;20028;-77
2022/03/14 13:56:41;;;;;;;9.40;4.40;;;;;;;;;;5011577;28;20053;-76
2022/03/14 13:59:06;;;;;;;8.43;4.13;;;;;;;;;;5011466;28;20008;-77
2022/03/14 14:01:42;;;;;;;8.50;4.15;;;;;;;;;;5011780;28;20026;-77
2022/03/14 14:04:11;;;;;;;10.30;4.35;;;;;;;;;;5011661;28;20028;-76
2022/03/14 14:06:41;;;;;;;10.02;3.80;;;;;;;;;;5011282;28;20029;-77
2022/03/14 14:09:19;;;;;;;10.07;4.43;;;;;;;;;;5011070;28;20014;-75
2022/03/14 14:12:03;;;;;;;12.20;4.22;;;;;;;;;;5011375;28;20030;-77
2022/03/14 14:14:29;;;;;;;6.43;3.80;;;;;;;;;;5011781;28;20021;-77
2022/03/14 14:17:10;;;;;;;8.45;4.15;;;;;;;;;;5012609;28;20022;-80
2022/03/14 14:19:36;;;;;;;9.02;4.53;;;;;;;;;;5010980;28;20484;-76
2022/03/14 14:22:01;;;;;;;12.45;4.78;;;;;;;;;;5011554;28;20038;-76
2022/03/14 14:24:26;;;;;;;7.70;3.80;;;;;;;;;;5011504;28;20022;-76
2022/03/14 14:26:52;;;;;;;7.22;4.30;;;;;;;;;;5015016;28;20021;-76